createdAt,value
2019-01-23T00:00:49.212Z,59.00
2019-01-23T00:03:15.112Z,57.77
2019-01-23T00:05:40.981Z,54.63
2019-01-23T00:08:06.897Z,54.77
2019-01-23T00:10:32.821Z,54.73
2019-01-23T00:12:58.702Z,56.90
2019-01-23T00:15:24.563Z,55.37
2019-01-23T00:17:50.446Z,61.47
2019-01-23T00:20:16.362Z,54.40
2019-01-23T00:22:42.221Z,62.33
2019-01-23T00:25:12.160Z,57.90
2019-01-23T00:27:38.053Z,57.70
2019-01-23T00:30:09.851Z,58.70
2019-01-23T00:32:35.774Z,58.93
2019-01-23T00:35:01.636Z,60.90
2019-01-23T00:37:27.501Z,60.63
2019-01-23T00:39:53.422Z,56.50
2019-01-23T00:42:19.313Z,60.10
2019-01-23T00:44:45.167Z,62.20
2019-01-23T00:47:11.038Z,61.20
2019-01-23T00:49:37.075Z,56.30
2019-01-23T00:52:03.058Z,53.48
2019-01-23T00:54:29.029Z,57.90
2019-01-23T00:56:54.929Z,56.93
2019-01-23T00:59:20.828Z,58.67
2019-01-23T01:01:46.727Z,54.70
2019-01-23T01:04:12.593Z,54.10
2019-01-23T01:06:38.488Z,58.17
2019-01-23T01:09:07.001Z,54.47
2019-01-23T01:11:32.874Z,52.67
2019-01-23T01:13:58.758Z,55.27
2019-01-23T01:16:24.674Z,53.30
2019-01-23T01:18:50.528Z,54.57
2019-01-23T01:21:16.524Z,54.67
2019-01-23T01:23:42.448Z,55.20
2019-01-23T01:26:08.504Z,55.70
2019-01-23T01:28:34.389Z,54.08
2019-01-23T01:31:00.331Z,53.73
2019-01-23T01:33:26.211Z,51.63
2019-01-23T01:35:52.078Z,54.47
2019-01-23T01:38:17.959Z,50.20
2019-01-23T01:40:43.965Z,49.87
2019-01-23T01:43:09.877Z,49.07
2019-01-23T01:45:35.733Z,50.37
2019-01-23T01:48:01.689Z,48.30
2019-01-23T01:50:27.573Z,49.20
2019-01-23T01:52:53.438Z,50.53
2019-01-23T01:55:19.306Z,50.13
2019-01-23T01:57:45.323Z,47.00
2019-01-23T02:00:19.298Z,49.63
2019-01-23T02:02:45.184Z,49.42
2019-01-23T02:05:11.053Z,50.90
2019-01-23T02:07:36.948Z,44.30
2019-01-23T02:10:06.485Z,46.90
2019-01-23T02:12:32.368Z,42.88
2019-01-23T02:14:58.218Z,42.70
2019-01-23T02:17:24.458Z,40.20
2019-01-23T02:19:50.353Z,43.15
2019-01-23T02:22:16.233Z,44.23
2019-01-23T02:24:42.128Z,42.93
2019-01-23T02:27:08.065Z,40.47
2019-01-23T02:29:33.950Z,43.60
2019-01-23T02:31:59.877Z,42.27
2019-01-23T02:34:25.744Z,42.00
2019-01-23T02:36:51.768Z,42.80
2019-01-23T02:39:17.691Z,45.67
2019-01-23T02:41:43.563Z,44.50
2019-01-23T02:44:09.478Z,47.70
2019-01-23T02:46:35.471Z,48.97
2019-01-23T02:49:01.385Z,47.73
2019-01-23T02:51:27.313Z,50.43
2019-01-23T02:53:53.139Z,51.17
2019-01-23T02:56:19.039Z,48.17
2019-01-23T02:58:44.933Z,51.13
2019-01-23T03:01:10.797Z,49.70
2019-01-23T03:03:36.774Z,46.30
2019-01-23T03:06:02.743Z,45.30
2019-01-23T03:08:28.604Z,46.83
2019-01-23T03:10:54.651Z,48.57
2019-01-23T03:13:20.632Z,44.80
2019-01-23T03:15:46.531Z,46.10
2019-01-23T03:18:12.434Z,50.33
2019-01-23T03:20:38.334Z,45.50
2019-01-23T03:23:04.198Z,45.40
2019-01-23T03:25:30.216Z,43.87
2019-01-23T03:27:59.739Z,45.47
2019-01-23T03:30:25.764Z,45.30
2019-01-23T03:32:51.647Z,49.20
2019-01-23T03:35:17.560Z,48.10
2019-01-23T03:37:43.444Z,43.23
2019-01-23T03:40:15.138Z,46.20
2019-01-23T03:42:41.029Z,48.30
2019-01-23T03:45:09.195Z,45.60
2019-01-23T03:47:35.116Z,43.30
2019-01-23T03:50:01.129Z,45.67
2019-01-23T03:52:27.057Z,41.20
2019-01-23T03:54:53.138Z,45.63
2019-01-23T03:57:19.188Z,45.03
2019-01-23T03:59:45.165Z,43.03
2019-01-23T04:02:11.055Z,41.17
2019-01-23T04:04:36.954Z,41.90
2019-01-23T04:07:02.881Z,46.27
2019-01-23T04:09:28.744Z,49.33
2019-01-23T04:11:54.630Z,45.43
2019-01-23T04:14:20.536Z,43.00
2019-01-23T04:16:46.414Z,45.33
2019-01-23T04:19:12.325Z,42.50
2019-01-23T04:21:38.207Z,46.43
2019-01-23T04:24:04.075Z,42.90
2019-01-23T04:26:30.093Z,41.73
2019-01-23T04:28:56.106Z,43.53
2019-01-23T04:31:21.972Z,44.07
2019-01-23T04:33:47.848Z,44.13
2019-01-23T04:36:13.731Z,44.50
2019-01-23T04:38:39.722Z,44.50
2019-01-23T04:41:05.636Z,42.83
2019-01-23T04:43:31.594Z,39.87
2019-01-23T04:45:57.456Z,43.27
2019-01-23T04:48:23.335Z,41.37
2019-01-23T04:51:00.318Z,43.03
2019-01-23T04:53:36.879Z,43.67
2019-01-23T04:56:02.966Z,44.13
2019-01-23T04:58:28.870Z,42.70
2019-01-23T05:00:54.774Z,43.37
2019-01-23T05:03:20.656Z,45.63
2019-01-23T05:05:46.523Z,42.27
2019-01-23T05:08:12.404Z,48.03
2019-01-23T05:10:38.416Z,44.73
2019-01-23T05:13:04.390Z,49.00
2019-01-23T05:15:30.242Z,46.13
2019-01-23T05:17:56.124Z,44.93
2019-01-23T05:20:22.224Z,45.50
2019-01-23T05:22:48.204Z,51.23
2019-01-23T05:25:14.177Z,48.87
2019-01-23T05:27:40.316Z,47.20
2019-01-23T05:30:18.830Z,43.37
2019-01-23T05:32:44.743Z,47.33
2019-01-23T05:35:10.606Z,46.27
2019-01-23T05:37:36.573Z,43.67
2019-01-23T05:40:05.712Z,44.23
2019-01-23T05:42:31.651Z,47.00
2019-01-23T05:44:57.508Z,49.93
2019-01-23T05:47:23.380Z,49.00
2019-01-23T05:49:49.369Z,47.40
2019-01-23T05:52:15.241Z,46.47
2019-01-23T05:54:41.112Z,45.90
2019-01-23T05:57:07.002Z,47.23
2019-01-23T05:59:32.954Z,43.77
2019-01-23T06:01:58.986Z,43.83
2019-01-23T06:04:24.847Z,47.60
2019-01-23T06:06:50.736Z,45.07
2019-01-23T06:09:16.640Z,45.90
2019-01-23T06:11:42.529Z,44.87
2019-01-23T06:14:08.377Z,45.67
2019-01-23T06:16:34.274Z,47.90
2019-01-23T06:19:00.184Z,44.83
2019-01-23T06:21:26.062Z,39.67
2019-01-23T06:23:52.049Z,46.07
2019-01-23T06:26:17.958Z,39.77
2019-01-23T06:28:43.821Z,46.23
2019-01-23T06:31:13.558Z,45.17
2019-01-23T06:33:39.530Z,43.70
2019-01-23T06:36:05.466Z,43.43
2019-01-23T06:38:31.369Z,45.10
2019-01-23T06:40:57.317Z,45.37
2019-01-23T06:43:23.321Z,46.30
2019-01-23T06:45:49.308Z,45.13
2019-01-23T06:48:15.230Z,52.40
2019-01-23T06:50:41.116Z,51.10
2019-01-23T06:53:13.808Z,49.70
2019-01-23T06:55:35.170Z,51.90
2019-01-23T06:58:01.024Z,47.87
2019-01-23T07:00:26.959Z,48.83
2019-01-23T07:02:53.023Z,49.33
2019-01-23T07:05:19.231Z,50.40
2019-01-23T07:07:45.188Z,53.80
2019-01-23T07:10:15.219Z,50.90
2019-01-23T07:12:41.163Z,53.57
2019-01-23T07:15:09.468Z,49.80
2019-01-23T07:17:35.406Z,49.43
2019-01-23T07:20:01.331Z,46.27
2019-01-23T07:22:27.219Z,53.60
2019-01-23T07:24:53.208Z,50.50
2019-01-23T07:27:19.222Z,47.63
2019-01-23T07:29:45.114Z,53.63
2019-01-23T07:32:11.196Z,49.60
2019-01-23T07:34:37.230Z,51.77
2019-01-23T07:37:03.112Z,58.53
2019-01-23T07:39:28.978Z,49.67
2019-01-23T07:41:54.852Z,54.97
2019-01-23T07:44:20.718Z,51.27
2019-01-23T07:46:46.604Z,50.77
2019-01-23T07:49:12.566Z,56.97
2019-01-23T07:51:38.431Z,54.30
2019-01-23T07:54:04.372Z,53.00
2019-01-23T07:56:30.233Z,51.70
2019-01-23T07:58:57.996Z,51.63
2019-01-23T08:01:27.747Z,57.27
2019-01-23T08:03:53.606Z,56.50
2019-01-23T08:06:19.466Z,55.63
2019-01-23T08:08:45.385Z,59.03
2019-01-23T08:11:11.258Z,56.67
2019-01-23T08:13:37.107Z,53.90
2019-01-23T08:16:03.027Z,58.50
2019-01-23T08:18:28.911Z,53.73
2019-01-23T08:20:54.762Z,57.90
2019-01-23T08:23:20.684Z,68.23
2019-01-23T08:25:46.603Z,55.20
2019-01-23T08:28:12.454Z,56.97
2019-01-23T08:30:40.749Z,60.27
2019-01-23T08:33:10.028Z,58.53
2019-01-23T08:35:35.882Z,59.60
2019-01-23T08:38:01.857Z,59.77
2019-01-23T08:40:27.743Z,58.20
2019-01-23T08:42:53.616Z,58.03
2019-01-23T08:45:19.623Z,67.67
2019-01-23T08:47:45.488Z,55.63
2019-01-23T08:50:29.955Z,62.23
2019-01-23T08:52:55.871Z,67.67
2019-01-23T08:55:22.938Z,59.63
2019-01-23T08:57:49.167Z,59.27
2019-01-23T09:00:16.033Z,60.33
2019-01-23T09:02:41.905Z,58.33
2019-01-23T09:05:08.286Z,56.33
2019-01-23T09:07:34.183Z,57.40
2019-01-23T09:10:00.274Z,57.07
2019-01-23T09:12:26.265Z,65.07
2019-01-23T09:14:52.237Z,58.50
2019-01-23T09:17:18.261Z,65.87
2019-01-23T09:19:44.157Z,61.10
2019-01-23T09:22:10.054Z,59.23
2019-01-23T09:24:35.935Z,57.83
2019-01-23T09:27:01.845Z,65.00
2019-01-23T09:29:27.728Z,62.97
2019-01-23T09:32:15.685Z,67.70
2019-01-23T09:35:12.516Z,64.60
2019-01-23T09:37:45.060Z,68.67
2019-01-23T09:40:23.547Z,63.87
2019-01-23T09:43:02.392Z,65.03
2019-01-23T09:45:32.099Z,65.07
2019-01-23T09:48:14.017Z,65.83
2019-01-23T09:51:06.847Z,64.37
2019-01-23T09:53:36.531Z,65.03
2019-01-23T09:56:02.685Z,69.77
2019-01-23T09:58:28.542Z,65.97
2019-01-23T10:00:59.758Z,68.63
2019-01-23T10:03:23.099Z,71.30
2019-01-23T10:05:49.634Z,74.77
2019-01-23T10:08:15.554Z,72.63
2019-01-23T10:10:41.408Z,68.27
2019-01-23T10:13:07.415Z,69.67
2019-01-23T10:15:37.107Z,65.80
2019-01-23T10:18:02.966Z,73.73
2019-01-23T10:20:28.900Z,67.83
2019-01-23T10:22:54.869Z,70.80
2019-01-23T10:25:20.859Z,70.20
2019-01-23T10:27:46.774Z,66.37
2019-01-23T10:30:13.526Z,70.40
2019-01-23T10:32:39.467Z,67.37
2019-01-23T10:35:08.908Z,73.27
2019-01-23T10:37:34.769Z,65.30
2019-01-23T10:40:00.669Z,74.30
2019-01-23T10:42:26.553Z,60.40
2019-01-23T10:44:52.436Z,60.80
2019-01-23T10:47:18.316Z,66.73
2019-01-23T10:49:44.186Z,101.67
2019-01-23T10:52:10.075Z,73.47
2019-01-23T10:54:35.987Z,107.33
2019-01-23T10:57:01.870Z,74.43
2019-01-23T10:59:27.734Z,56.27
2019-01-23T11:01:53.871Z,56.53
2019-01-23T11:04:19.984Z,52.27
2019-01-23T11:06:45.900Z,51.67
2019-01-23T11:09:11.831Z,51.67
2019-01-23T11:11:37.785Z,48.80
2019-01-23T11:14:03.664Z,50.20
2019-01-23T11:16:29.548Z,50.20
2019-01-23T11:18:55.420Z,49.10
2019-01-23T11:21:21.355Z,45.93
2019-01-23T11:23:47.249Z,50.17
2019-01-23T11:26:13.150Z,49.97
2019-01-23T11:28:38.978Z,50.07
2019-01-23T11:31:04.849Z,52.13
2019-01-23T11:33:30.748Z,50.43
2019-01-23T11:35:56.643Z,47.50
2019-01-23T11:38:22.592Z,47.70
2019-01-23T11:40:48.449Z,47.03
2019-01-23T11:43:14.328Z,46.00
2019-01-23T11:45:40.208Z,48.57
2019-01-23T11:48:06.124Z,50.20
2019-01-23T11:50:31.984Z,53.60
2019-01-23T11:52:57.833Z,46.73
2019-01-23T11:55:23.775Z,48.93
2019-01-23T11:57:49.644Z,47.17
2019-01-23T12:00:19.329Z,47.60
2019-01-23T12:02:45.250Z,49.10
2019-01-23T12:05:13.241Z,46.47
2019-01-23T12:07:39.106Z,47.73
2019-01-23T12:10:08.804Z,45.97
2019-01-23T12:12:34.678Z,44.70
2019-01-23T12:15:00.608Z,44.67
2019-01-23T12:17:26.564Z,44.47
2019-01-23T12:19:52.433Z,49.70
2019-01-23T12:22:18.321Z,49.60
2019-01-23T12:24:44.229Z,48.67
2019-01-23T12:27:10.183Z,43.93
2019-01-23T12:29:36.037Z,48.77
2019-01-23T12:32:01.908Z,52.80
2019-01-23T12:34:27.792Z,48.80
2019-01-23T12:36:53.684Z,50.77
2019-01-23T12:39:23.708Z,49.50
2019-01-23T12:41:49.572Z,48.53
2019-01-23T12:44:15.456Z,50.83
2019-01-23T12:46:41.393Z,50.53
2019-01-23T12:49:07.319Z,47.97
2019-01-23T12:51:33.234Z,48.37
2019-01-23T12:53:59.135Z,45.87
2019-01-23T12:56:25.001Z,45.37
2019-01-23T12:58:50.998Z,51.20
2019-01-23T13:01:16.946Z,51.47
2019-01-23T13:03:42.905Z,40.07
2019-01-23T13:06:08.829Z,40.50
2019-01-23T13:08:34.830Z,43.77
2019-01-23T13:11:00.717Z,47.13
2019-01-23T13:13:26.661Z,37.80
2019-01-23T13:15:52.527Z,37.70
2019-01-23T13:18:18.516Z,41.37
2019-01-23T13:20:44.396Z,37.93
2019-01-23T13:23:10.305Z,37.93
2019-01-23T13:25:36.205Z,39.10
2019-01-23T13:28:02.199Z,36.80
2019-01-23T13:30:28.090Z,38.07
2019-01-23T13:32:53.952Z,38.33
2019-01-23T13:35:32.061Z,37.20
2019-01-23T13:37:58.332Z,45.00
2019-01-23T13:40:30.556Z,43.23
2019-01-23T13:42:56.515Z,40.60
2019-01-23T13:45:22.372Z,41.17
2019-01-23T13:47:48.251Z,41.17
2019-01-23T13:50:14.256Z,39.67
2019-01-23T13:52:40.105Z,39.83
2019-01-23T13:55:09.384Z,41.80
2019-01-23T13:57:35.334Z,42.77
2019-01-23T14:00:02.113Z,43.73
2019-01-23T14:02:27.971Z,51.90
2019-01-23T14:04:53.916Z,47.47
2019-01-23T14:07:19.794Z,47.53
2019-01-23T14:09:45.635Z,50.90
2019-01-23T14:12:11.566Z,49.63
2019-01-23T14:14:37.516Z,51.80
2019-01-23T14:17:03.373Z,48.10
2019-01-23T14:19:29.248Z,52.50
2019-01-23T14:21:55.338Z,49.63
2019-01-23T14:24:21.494Z,47.27
2019-01-23T14:26:47.357Z,53.43
2019-01-23T14:29:13.228Z,59.80
2019-01-23T14:31:39.129Z,56.93
2019-01-23T14:34:05.228Z,50.67
2019-01-23T14:36:31.102Z,50.73
2019-01-23T14:38:56.963Z,50.90
2019-01-23T14:41:22.963Z,49.77
2019-01-23T14:43:48.819Z,53.40
2019-01-23T14:46:14.703Z,53.03
2019-01-23T14:48:40.589Z,49.27
2019-01-23T14:51:06.459Z,48.67
2019-01-23T14:53:32.369Z,47.40
2019-01-23T14:55:58.237Z,48.83
2019-01-23T14:58:24.100Z,46.90
2019-01-23T15:00:50.030Z,51.17
2019-01-23T15:03:15.927Z,51.37
2019-01-23T15:05:41.782Z,50.00
2019-01-23T15:08:07.737Z,53.47
2019-01-23T15:10:33.587Z,49.87
2019-01-23T15:12:59.449Z,53.50
2019-01-23T15:15:25.350Z,49.57
2019-01-23T15:17:51.997Z,47.53
2019-01-23T15:20:22.965Z,52.53
2019-01-23T15:22:48.869Z,48.33
2019-01-23T15:25:14.747Z,47.80
2019-01-23T15:27:40.604Z,50.77
2019-01-23T15:30:10.346Z,53.50
2019-01-23T15:32:36.232Z,52.57
2019-01-23T15:35:04.625Z,50.77
2019-01-23T15:37:30.512Z,47.47
2019-01-23T15:39:56.469Z,47.77
2019-01-23T15:42:26.303Z,53.93
2019-01-23T15:44:52.185Z,52.13
2019-01-23T15:47:18.129Z,56.97
2019-01-23T15:49:44.027Z,53.67
2019-01-23T15:52:09.965Z,54.40
2019-01-23T15:54:36.012Z,53.70
2019-01-23T15:57:01.868Z,56.43
2019-01-23T15:59:27.741Z,53.33
2019-01-23T16:01:53.732Z,52.57
2019-01-23T16:04:19.654Z,55.63
2019-01-23T16:06:45.663Z,52.50
2019-01-23T16:09:11.568Z,50.67
2019-01-23T16:11:37.583Z,54.53
2019-01-23T16:14:03.528Z,51.13
2019-01-23T16:16:29.460Z,52.80
2019-01-23T16:18:55.383Z,54.37
2019-01-23T16:21:21.388Z,62.03
2019-01-23T16:23:47.270Z,53.33
2019-01-23T16:26:13.306Z,56.00
2019-01-23T16:28:39.236Z,47.57
2019-01-23T16:31:05.110Z,52.10
2019-01-23T16:33:30.988Z,44.80
2019-01-23T16:35:56.978Z,47.27
2019-01-23T16:38:22.883Z,44.60
2019-01-23T16:40:48.814Z,49.27
2019-01-23T16:43:14.705Z,45.43
2019-01-23T16:45:40.588Z,45.87
2019-01-23T16:48:06.485Z,52.67
2019-01-23T16:50:32.364Z,45.97
2019-01-23T16:52:58.247Z,45.70
2019-01-23T16:55:24.137Z,44.00
2019-01-23T16:57:50.576Z,48.33
2019-01-23T17:00:18.633Z,48.03
2019-01-23T17:02:44.503Z,50.60
2019-01-23T17:05:19.221Z,50.63
2019-01-23T17:07:45.113Z,47.67
2019-01-23T17:10:16.459Z,50.47
2019-01-23T17:12:42.447Z,52.50
2019-01-23T17:15:09.650Z,50.33
2019-01-23T17:17:35.510Z,49.80
2019-01-23T17:20:01.416Z,50.00
2019-01-23T17:22:27.292Z,48.63
2019-01-23T17:24:53.165Z,48.60
2019-01-23T17:27:19.093Z,54.57
2019-01-23T17:29:44.968Z,51.33
2019-01-23T17:32:10.934Z,51.30
2019-01-23T17:34:36.860Z,52.33
2019-01-23T17:37:02.751Z,51.33
2019-01-23T17:39:28.648Z,50.47
2019-01-23T17:41:54.918Z,51.13
2019-01-23T17:44:20.890Z,52.67
2019-01-23T17:46:47.075Z,53.03
2019-01-23T17:49:13.311Z,49.97
2019-01-23T17:51:39.652Z,50.50
2019-01-23T17:54:05.513Z,54.93
2019-01-23T17:56:31.377Z,52.63
2019-01-23T17:58:57.473Z,51.33
2019-01-23T18:01:23.450Z,49.57
2019-01-23T18:03:49.308Z,56.33
2019-01-23T18:06:15.247Z,52.27
2019-01-23T18:08:41.225Z,54.60
2019-01-23T18:11:07.107Z,49.93
2019-01-23T18:13:32.984Z,50.10
2019-01-23T18:16:00.972Z,51.97
2019-01-23T18:18:26.851Z,51.83
2019-01-23T18:20:52.725Z,52.40
2019-01-23T18:23:18.651Z,50.33
2019-01-23T18:25:44.548Z,49.97
2019-01-23T18:28:10.467Z,52.93
2019-01-23T18:30:46.174Z,47.87
2019-01-23T18:33:15.868Z,50.33
2019-01-23T18:36:00.837Z,51.47
2019-01-23T18:38:39.405Z,56.47
2019-01-23T18:41:18.196Z,53.50
2019-01-23T18:43:56.869Z,57.53
2019-01-23T18:46:58.943Z,55.77
2019-01-23T18:49:51.671Z,58.97
2019-01-23T18:52:17.692Z,54.63
2019-01-23T18:54:43.614Z,56.68
2019-01-23T18:57:21.940Z,55.03
2019-01-23T18:59:47.798Z,58.07
2019-01-23T19:02:13.660Z,58.27
2019-01-23T19:04:39.637Z,65.03
2019-01-23T19:07:05.495Z,58.40
2019-01-23T19:09:31.604Z,59.67
2019-01-23T19:11:57.469Z,62.37
2019-01-23T19:14:24.606Z,64.17
2019-01-23T19:16:50.636Z,63.83
2019-01-23T19:19:16.644Z,65.80
2019-01-23T19:21:42.492Z,67.40
2019-01-23T19:24:08.365Z,66.30
2019-01-23T19:26:34.341Z,67.40
2019-01-23T19:29:00.245Z,64.77
2019-01-23T19:31:26.255Z,63.87
2019-01-23T19:33:52.256Z,63.90
2019-01-23T19:36:18.218Z,67.10
2019-01-23T19:38:44.965Z,62.67
2019-01-23T19:41:10.896Z,61.30
2019-01-23T19:43:36.822Z,64.40
2019-01-23T19:46:02.705Z,64.63
2019-01-23T19:48:31.475Z,62.93
2019-01-23T19:50:57.417Z,67.80
2019-01-23T19:53:23.314Z,67.07
2019-01-23T19:55:49.204Z,67.60
2019-01-23T19:58:15.184Z,66.10
2019-01-23T20:00:41.105Z,67.67
2019-01-23T20:03:07.073Z,65.47
2019-01-23T20:05:34.505Z,67.80
2019-01-23T20:08:00.454Z,68.23
2019-01-23T20:10:26.380Z,67.07
2019-01-23T20:12:52.828Z,69.13
2019-01-23T20:15:20.156Z,66.23
2019-01-23T20:17:48.016Z,66.43
2019-01-23T20:20:14.561Z,72.47
2019-01-23T20:22:40.629Z,66.60
2019-01-23T20:25:09.909Z,66.17
2019-01-23T20:27:35.912Z,70.97
2019-01-23T20:30:04.113Z,71.00
2019-01-23T20:32:30.022Z,65.50
2019-01-23T20:34:55.917Z,70.07
2019-01-23T20:37:24.952Z,73.37
2019-01-23T20:39:50.838Z,71.13
2019-01-23T20:42:16.735Z,69.00
2019-01-23T20:44:42.756Z,69.13
2019-01-23T20:47:08.678Z,66.90
2019-01-23T20:49:34.575Z,70.80
2019-01-23T20:52:00.485Z,71.47
2019-01-23T20:54:26.361Z,73.07
2019-01-23T20:56:52.305Z,75.63
2019-01-23T20:59:18.192Z,70.67
2019-01-23T21:01:44.155Z,71.80
2019-01-23T21:04:10.062Z,77.77
2019-01-23T21:06:35.955Z,72.67
2019-01-23T21:09:02.191Z,75.20
2019-01-23T21:11:28.043Z,74.57
2019-01-23T21:13:53.911Z,70.17
2019-01-23T21:16:19.785Z,75.30
2019-01-23T21:18:45.667Z,84.80
2019-01-23T21:21:11.745Z,81.03
2019-01-23T21:23:37.622Z,79.93
2019-01-23T21:26:03.484Z,78.07
2019-01-23T21:28:29.411Z,72.87
2019-01-23T21:30:55.318Z,73.50
2019-01-23T21:33:21.182Z,82.43
2019-01-23T21:35:47.094Z,79.83
2019-01-23T21:38:12.939Z,75.40
2019-01-23T21:40:39.223Z,83.77
2019-01-23T21:43:05.150Z,80.77
2019-01-23T21:45:31.000Z,81.10
2019-01-23T21:47:57.836Z,84.10
2019-01-23T21:50:27.359Z,85.30
2019-01-23T21:52:53.220Z,88.13
2019-01-23T21:55:20.872Z,88.83
2019-01-23T21:57:46.737Z,83.70
2019-01-23T22:00:30.744Z,84.33
2019-01-23T22:02:58.589Z,89.60
2019-01-23T22:05:24.493Z,82.97
2019-01-23T22:07:50.361Z,82.13
2019-01-23T22:10:16.230Z,78.73
2019-01-23T22:12:42.224Z,79.30
2019-01-23T22:15:16.908Z,82.23
2019-01-23T22:17:42.805Z,82.00
2019-01-23T22:20:17.131Z,83.17
2019-01-23T22:22:43.007Z,83.47
2019-01-23T22:25:10.573Z,85.20
2019-01-23T22:27:36.456Z,80.37
2019-01-23T22:30:05.852Z,83.50
2019-01-23T22:32:31.913Z,83.90
2019-01-23T22:34:57.776Z,87.10
2019-01-23T22:37:23.665Z,85.30
2019-01-23T22:39:49.568Z,78.97
2019-01-23T22:42:15.483Z,85.00
2019-01-23T22:44:41.391Z,88.37
2019-01-23T22:47:07.274Z,83.57
2019-01-23T22:49:33.110Z,88.07
2019-01-23T22:51:59.067Z,85.37
2019-01-23T22:54:24.966Z,87.23
2019-01-23T22:56:50.836Z,86.17
2019-01-23T22:59:16.717Z,90.13
2019-01-23T23:01:42.759Z,87.50
2019-01-23T23:04:08.643Z,89.20
2019-01-23T23:06:34.507Z,85.50
2019-01-23T23:09:00.878Z,92.97
2019-01-23T23:11:26.800Z,88.33
2019-01-23T23:13:52.802Z,85.80
2019-01-23T23:16:18.769Z,92.80
2019-01-23T23:18:44.652Z,92.60
2019-01-23T23:21:10.585Z,90.77
2019-01-23T23:23:36.465Z,89.67
2019-01-23T23:26:02.322Z,95.30
2019-01-23T23:28:28.240Z,93.80
2019-01-23T23:30:54.240Z,89.93
2019-01-23T23:33:20.144Z,89.87
2019-01-23T23:35:46.059Z,86.63
2019-01-23T23:38:11.940Z,87.57
2019-01-23T23:40:37.778Z,86.90
2019-01-23T23:43:03.700Z,87.93
2019-01-23T23:45:29.673Z,90.23
2019-01-23T23:47:55.553Z,82.20
2019-01-23T23:50:21.451Z,91.53
2019-01-23T23:52:50.647Z,82.43
2019-01-23T23:55:16.507Z,81.80
2019-01-23T23:57:42.490Z,80.93
